Flat River, Missouri
Current Conditions -  °F | °C
As of 11:15 PM on Friday 21 Nov 2014 (Local Time) from KFAM Reporting Station
Broken Clouds Broken Clouds  
Wind Chill: 32°   Ceiling: 8000
Heat Index: 39°   Visibility: 10mi
Dew Point: 36°   Wind: 10mph
Humidity: 87%   Direction: 130°SE
Pressure: 30.24"   Gusts: NA
Location:  37.8688°N, 90.5931°W
Report Text: KFAM 220515Z AUTO 13009KT 10SM SCT050 BKN080 04/02 A3024 RMK AO1
Loading
Personal Weather Stations






























Interactive Weather Map New forecast layout! Learn more

10-Day Weather Forecast

Advertisements
Track Severe Weather on mobile